createdAt,value
2018-11-25T00:00:02.110Z,995.25
2018-11-25T00:05:01.448Z,995.23
2018-11-25T00:10:01.751Z,995.23
2018-11-25T00:15:02.025Z,995.2
2018-11-25T00:20:01.331Z,995.12
2018-11-25T00:25:01.711Z,995.17
2018-11-25T00:30:01.998Z,995.12
2018-11-25T00:35:01.326Z,995.11
2018-11-25T00:40:01.664Z,994.98
2018-11-25T00:45:01.920Z,994.92
2018-11-25T00:50:02.201Z,994.95
2018-11-25T00:55:01.493Z,995.01
2018-11-25T01:00:01.790Z,995.01
2018-11-25T01:05:02.095Z,994.98
2018-11-25T01:10:01.382Z,994.92
2018-11-25T01:15:01.678Z,994.9
2018-11-25T01:20:01.994Z,995.05
2018-11-25T01:25:01.261Z,995.02
2018-11-25T01:30:01.537Z,995.06
2018-11-25T01:35:01.832Z,995.05
2018-11-25T01:40:02.110Z,995
2018-11-25T01:45:01.438Z,995.02
2018-11-25T01:50:01.846Z,995.04
2018-11-25T01:55:02.093Z,995
2018-11-25T02:00:01.534Z,994.98
2018-11-25T02:05:01.868Z,995.01
2018-11-25T02:10:02.143Z,995.08
2018-11-25T02:20:02.114Z,994.86
2018-11-25T02:25:01.341Z,994.77
2018-11-25T02:30:01.664Z,994.78
2018-11-25T02:35:01.977Z,994.66
2018-11-25T02:40:02.220Z,994.65
2018-11-25T02:45:01.471Z,994.66
2018-11-25T02:50:01.773Z,994.66
2018-11-25T02:55:02.058Z,994.68
2018-11-25T03:00:01.367Z,994.71
2018-11-25T03:05:01.639Z,994.61
2018-11-25T03:10:01.937Z,994.67
2018-11-25T03:15:01.995Z,994.57
2018-11-25T03:20:01.343Z,994.59
2018-11-25T03:25:01.682Z,994.52
2018-11-25T03:30:01.999Z,994.51
2018-11-25T03:35:01.298Z,994.51
2018-11-25T03:40:02.007Z,994.53
2018-11-25T03:45:01.298Z,994.5
2018-11-25T03:50:01.567Z,994.48
2018-11-25T03:55:01.841Z,994.55
2018-11-25T04:00:02.114Z,994.57
2018-11-25T04:05:01.381Z,994.45
2018-11-25T04:10:01.671Z,994.46
2018-11-25T04:15:01.993Z,994.46
2018-11-25T04:20:01.322Z,994.57
2018-11-25T04:25:01.560Z,994.57
2018-11-25T04:30:01.841Z,994.53
2018-11-25T04:35:02.110Z,994.43
2018-11-25T04:40:01.399Z,994.34
2018-11-25T04:45:01.736Z,994.41
2018-11-25T04:50:02.066Z,994.42
2018-11-25T04:55:01.367Z,994.42
2018-11-25T05:00:01.669Z,994.33
2018-11-25T05:05:01.957Z,994.29
2018-11-25T05:10:02.230Z,994.35
2018-11-25T05:15:01.489Z,994.3
2018-11-25T05:20:01.774Z,994.28
2018-11-25T05:25:02.075Z,994.22
2018-11-25T05:30:01.381Z,994.28
2018-11-25T05:35:01.840Z,994.25
2018-11-25T05:40:01.847Z,994.19
2018-11-25T05:45:02.109Z,994.23
2018-11-25T05:50:01.624Z,994.2
2018-11-25T05:55:01.902Z,994.24
2018-11-25T06:00:02.132Z,994.24
2018-11-25T06:05:01.416Z,994.27
2018-11-25T06:10:01.699Z,994.28
2018-11-25T06:15:01.972Z,994.28
2018-11-25T06:20:01.318Z,994.29
2018-11-25T06:25:01.592Z,994.33
2018-11-25T06:30:01.890Z,994.29
2018-11-25T06:35:02.125Z,994.3
2018-11-25T06:40:01.428Z,994.31
2018-11-25T06:45:01.748Z,994.28
2018-11-25T06:50:02.006Z,994.27
2018-11-25T06:55:01.290Z,994.34
2018-11-25T07:00:01.583Z,994.26
2018-11-25T07:05:01.866Z,994.27
2018-11-25T07:10:02.108Z,994.29
2018-11-25T07:15:01.379Z,994.36
2018-11-25T07:20:01.659Z,994.41
2018-11-25T07:25:01.955Z,994.42
2018-11-25T07:30:08.046Z,994.49
2018-11-25T07:35:01.343Z,994.4
2018-11-25T07:40:01.625Z,994.35
2018-11-25T07:45:01.928Z,994.34
2018-11-25T07:50:02.261Z,994.37
2018-11-25T07:55:01.533Z,994.36
2018-11-25T08:00:01.813Z,994.32
2018-11-25T08:05:02.094Z,994.26
2018-11-25T08:10:01.363Z,994.27
2018-11-25T08:15:01.652Z,994.29
2018-11-25T08:20:02.039Z,994.29
2018-11-25T08:25:01.453Z,994.27
2018-11-25T08:30:01.748Z,994.26
2018-11-25T08:35:02.022Z,994.31
2018-11-25T08:40:01.294Z,994.31
2018-11-25T08:45:01.541Z,994.29
2018-11-25T08:50:01.847Z,994.27
2018-11-25T08:55:02.097Z,994.19
2018-11-25T09:00:01.360Z,994.18
2018-11-25T09:05:01.662Z,994.23
2018-11-25T09:10:01.899Z,994.21
2018-11-25T09:15:02.123Z,994.2
2018-11-25T09:20:01.412Z,994.2
2018-11-25T09:25:01.633Z,994.17
2018-11-25T09:30:01.883Z,994.22
2018-11-25T09:35:02.118Z,994.14
2018-11-25T09:40:01.406Z,994.13
2018-11-25T09:45:01.654Z,994.14
2018-11-25T09:50:01.897Z,994.15
2018-11-25T09:55:02.124Z,994.12
2018-11-25T10:00:01.416Z,994.09
2018-11-25T10:05:01.666Z,994.07
2018-11-25T10:10:01.914Z,994.11
2018-11-25T10:15:02.168Z,994.19
2018-11-25T10:20:01.461Z,994.19
2018-11-25T10:25:01.700Z,994.1
2018-11-25T10:30:01.949Z,994.11
2018-11-25T10:35:02.184Z,994.08
2018-11-25T10:40:01.507Z,994.05
2018-11-25T10:45:01.800Z,994
2018-11-25T10:50:02.019Z,993.98
2018-11-25T10:55:01.305Z,993.95
2018-11-25T11:00:01.631Z,993.92
2018-11-25T11:05:01.907Z,993.79
2018-11-25T11:10:02.166Z,993.77
2018-11-25T11:15:01.439Z,993.75
2018-11-25T11:20:01.706Z,993.73
2018-11-25T11:25:01.945Z,993.65
2018-11-25T11:30:02.179Z,993.65
2018-11-25T11:35:01.465Z,993.64
2018-11-25T11:40:01.828Z,993.61
2018-11-25T11:45:02.098Z,993.54
2018-11-25T11:50:01.391Z,993.52
2018-11-25T11:55:01.660Z,993.52
2018-11-25T12:00:01.960Z,993.48
2018-11-25T12:05:02.201Z,993.51
2018-11-25T12:10:01.465Z,993.5
2018-11-25T12:15:01.746Z,993.4
2018-11-25T12:20:01.998Z,993.37
2018-11-25T12:25:01.291Z,993.39
2018-11-25T12:30:01.553Z,993.53
2018-11-25T12:35:01.825Z,993.5
2018-11-25T12:40:02.053Z,993.45
2018-11-25T12:45:01.318Z,993.53
2018-11-25T12:50:01.588Z,993.52
2018-11-25T12:55:01.840Z,993.48
2018-11-25T13:00:02.068Z,993.5
2018-11-25T13:05:01.347Z,993.46
2018-11-25T13:10:01.642Z,993.38
2018-11-25T13:15:01.918Z,993.39
2018-11-25T13:20:02.154Z,993.33
2018-11-25T13:25:01.819Z,993.27
2018-11-25T13:30:02.061Z,993.17
2018-11-25T13:35:01.359Z,993.09
2018-11-25T13:40:01.723Z,993.05
2018-11-25T13:45:02.054Z,993.06
2018-11-25T13:50:01.359Z,993.11
2018-11-25T13:55:01.620Z,992.96
2018-11-25T14:00:01.857Z,993
2018-11-25T14:05:02.095Z,992.92
2018-11-25T14:10:01.408Z,992.9
2018-11-25T14:15:01.673Z,992.87
2018-11-25T14:20:02.002Z,992.85
2018-11-25T14:25:01.323Z,992.89
2018-11-25T14:30:01.876Z,992.83
2018-11-25T14:35:02.172Z,992.81
2018-11-25T14:40:01.441Z,992.93
2018-11-25T14:45:01.694Z,992.97
2018-11-25T14:50:01.916Z,992.98
2018-11-25T14:55:02.138Z,993.01
2018-11-25T15:00:01.428Z,992.97
2018-11-25T15:05:01.667Z,992.89
2018-11-25T15:10:01.908Z,992.98
2018-11-25T15:15:02.174Z,993
2018-11-25T15:20:01.551Z,993.04
2018-11-25T15:25:01.817Z,992.91
2018-11-25T15:30:02.077Z,992.93
2018-11-25T15:35:01.462Z,992.94
2018-11-25T15:40:01.772Z,992.85
2018-11-25T15:45:02.019Z,992.71
2018-11-25T15:50:01.311Z,992.68
2018-11-25T15:55:01.630Z,992.7
2018-11-25T16:00:01.903Z,992.7
2018-11-25T16:05:02.206Z,992.69
2018-11-25T16:10:01.522Z,992.73
2018-11-25T16:15:01.831Z,992.75
2018-11-25T16:20:02.074Z,992.75
2018-11-25T16:25:01.352Z,992.72
2018-11-25T16:30:01.625Z,992.73
2018-11-25T16:35:01.968Z,992.81
2018-11-25T16:40:02.212Z,992.79
2018-11-25T16:45:01.503Z,992.74
2018-11-25T16:50:01.754Z,992.68
2018-11-25T16:55:01.980Z,992.65
2018-11-25T17:00:02.219Z,992.64
2018-11-25T17:05:01.513Z,992.62
2018-11-25T17:10:01.863Z,992.7
2018-11-25T17:15:02.090Z,992.73
2018-11-25T17:20:01.404Z,992.66
2018-11-25T17:25:01.697Z,992.66
2018-11-25T17:30:01.944Z,992.66
2018-11-25T17:35:02.179Z,992.66
2018-11-25T17:40:01.436Z,992.69
2018-11-25T17:45:01.719Z,992.67
2018-11-25T17:50:01.955Z,992.63
2018-11-25T17:55:02.179Z,992.69
2018-11-25T18:00:01.423Z,992.74
2018-11-25T18:05:01.687Z,992.7
2018-11-25T18:10:01.927Z,992.68
2018-11-25T18:15:02.163Z,992.67
2018-11-25T18:20:01.474Z,992.76
2018-11-25T18:25:01.744Z,992.69
2018-11-25T18:30:01.968Z,992.69
2018-11-25T18:35:02.230Z,992.71
2018-11-25T18:40:01.496Z,992.76
2018-11-25T18:45:01.780Z,992.81
2018-11-25T18:50:02.007Z,992.89
2018-11-25T18:55:01.382Z,992.8
2018-11-25T19:00:01.674Z,992.74
2018-11-25T19:05:01.946Z,992.68
2018-11-25T19:10:02.237Z,992.7
2018-11-25T19:15:01.517Z,992.69
2018-11-25T19:20:01.821Z,992.62
2018-11-25T19:25:02.050Z,992.56
2018-11-25T19:30:01.323Z,992.52
2018-11-25T19:35:01.623Z,992.44
2018-11-25T19:40:01.895Z,992.43
2018-11-25T19:45:02.130Z,992.52
2018-11-25T19:50:01.400Z,992.56
2018-11-25T19:55:01.677Z,992.51
2018-11-25T20:00:01.930Z,992.52
2018-11-25T20:05:02.168Z,992.5
2018-11-25T20:10:01.462Z,992.57
2018-11-25T20:15:01.746Z,992.61
2018-11-25T20:20:01.988Z,992.63
2018-11-25T20:25:02.480Z,992.65
2018-11-25T20:30:01.704Z,992.65
2018-11-25T20:35:01.959Z,992.7
2018-11-25T20:40:02.232Z,992.68
2018-11-25T20:45:01.489Z,992.57
2018-11-25T20:50:01.732Z,992.59
2018-11-25T20:55:01.968Z,992.65
2018-11-25T21:00:02.216Z,992.62
2018-11-25T21:05:01.467Z,992.59
2018-11-25T21:10:01.774Z,992.56
2018-11-25T21:15:02.197Z,992.53
2018-11-25T21:20:01.480Z,992.57
2018-11-25T21:25:01.706Z,992.57
2018-11-25T21:30:01.941Z,992.65
2018-11-25T21:35:02.251Z,992.61
2018-11-25T21:40:01.526Z,992.6
2018-11-25T21:45:01.751Z,992.6
2018-11-25T21:50:01.980Z,992.59
2018-11-25T21:55:02.234Z,992.6
2018-11-25T22:00:01.462Z,992.71
2018-11-25T22:05:01.884Z,992.75
2018-11-25T22:10:02.115Z,992.74
2018-11-25T22:15:01.360Z,992.74
2018-11-25T22:20:01.583Z,992.65
2018-11-25T22:25:01.800Z,992.58
2018-11-25T22:30:02.024Z,992.61
2018-11-25T22:35:01.295Z,992.63
2018-11-25T22:40:01.533Z,992.66
2018-11-25T22:45:01.766Z,992.68
2018-11-25T22:50:02.011Z,992.73
2018-11-25T22:55:01.261Z,992.78
2018-11-25T23:00:01.492Z,992.8
2018-11-25T23:05:01.730Z,992.8
2018-11-25T23:10:01.997Z,992.8
2018-11-25T23:15:01.263Z,992.82
2018-11-25T23:20:01.561Z,992.84
2018-11-25T23:25:01.780Z,992.84
2018-11-25T23:30:02.036Z,992.84
2018-11-25T23:35:01.297Z,992.87
2018-11-25T23:40:01.554Z,992.78
2018-11-25T23:45:01.828Z,992.77
2018-11-25T23:50:02.076Z,992.73
2018-11-25T23:55:01.349Z,992.74
